sensor_id;sensor_type;location;lat;lon;timestamp;pressure;altitude;pressure_sealevel;temperature
47484;BMP280;54076;50.322;18.650;2023-11-21T00:02:21;127784.34;;;4.13
47484;BMP280;54076;50.322;18.650;2023-11-21T00:07:22;128777.96;;;4.36
47484;BMP280;54076;50.322;18.650;2023-11-21T00:12:23;129269.15;;;4.47
47484;BMP280;54076;50.322;18.650;2023-11-21T00:17:25;129084.08;;;4.42
47484;BMP280;54076;50.322;18.650;2023-11-21T00:22:26;128838.55;;;4.37
47484;BMP280;54076;50.322;18.650;2023-11-21T00:27:27;129518.86;;;4.52
47484;BMP280;54076;50.322;18.650;2023-11-21T00:32:28;129273.02;;;4.46
47484;BMP280;54076;50.322;18.650;2023-11-21T00:37:29;129118.81;;;4.43
47484;BMP280;54076;50.322;18.650;2023-11-21T00:42:32;129575.63;;;4.53
47484;BMP280;54076;50.322;18.650;2023-11-21T00:47:34;128944.40;;;4.39
47484;BMP280;54076;50.322;18.650;2023-11-21T00:52:35;128905.38;;;4.39
47484;BMP280;54076;50.322;18.650;2023-11-21T00:57:36;129277.52;;;4.47
47484;BMP280;54076;50.322;18.650;2023-11-21T01:02:38;128431.60;;;4.28
47484;BMP280;54076;50.322;18.650;2023-11-21T01:07:39;127925.17;;;4.16
47484;BMP280;54076;50.322;18.650;2023-11-21T01:12:40;128092.30;;;4.20
47484;BMP280;54076;50.322;18.650;2023-11-21T01:17:41;128539.94;;;4.30
47484;BMP280;54076;50.322;18.650;2023-11-21T01:22:42;128047.98;;;4.19
47484;BMP280;54076;50.322;18.650;2023-11-21T01:27:43;127372.77;;;4.04
47484;BMP280;54076;50.322;18.650;2023-11-21T01:32:44;127468.65;;;4.06
47484;BMP280;54076;50.322;18.650;2023-11-21T01:37:45;127889.90;;;4.15
47484;BMP280;54076;50.322;18.650;2023-11-21T01:42:48;127456.83;;;4.06
47484;BMP280;54076;50.322;18.650;2023-11-21T01:47:50;126797.98;;;3.91
47484;BMP280;54076;50.322;18.650;2023-11-21T01:52:51;126613.90;;;3.87
47484;BMP280;54076;50.322;18.650;2023-11-21T01:57:53;126692.06;;;3.88
47484;BMP280;54076;50.322;18.650;2023-11-21T02:02:55;126662.60;;;3.88
47484;BMP280;54076;50.322;18.650;2023-11-21T02:07:55;126996.41;;;3.96
47484;BMP280;54076;50.322;18.650;2023-11-21T02:12:57;127223.94;;;4.01
47484;BMP280;54076;50.322;18.650;2023-11-21T02:17:59;126661.69;;;3.88
47484;BMP280;54076;50.322;18.650;2023-11-21T02:23:01;126582.50;;;3.85
47484;BMP280;54076;50.322;18.650;2023-11-21T02:28:03;126880.45;;;3.92
47484;BMP280;54076;50.322;18.650;2023-11-21T02:33:04;126183.15;;;3.76
47484;BMP280;54076;50.322;18.650;2023-11-21T02:38:06;126117.73;;;3.75
47484;BMP280;54076;50.322;18.650;2023-11-21T02:43:07;125679.98;;;3.65
47484;BMP280;54076;50.322;18.650;2023-11-21T02:48:08;125299.92;;;3.57
47484;BMP280;54076;50.322;18.650;2023-11-21T02:53:09;125414.34;;;3.60
47484;BMP280;54076;50.322;18.650;2023-11-21T02:58:11;125711.55;;;3.66
47484;BMP280;54076;50.322;18.650;2023-11-21T03:03:12;125750.73;;;3.67
47484;BMP280;54076;50.322;18.650;2023-11-21T03:08:13;125768.65;;;3.67
47484;BMP280;54076;50.322;18.650;2023-11-21T03:13:14;126061.90;;;3.74
47484;BMP280;54076;50.322;18.650;2023-11-21T03:18:15;125978.06;;;3.72
47484;BMP280;54076;50.322;18.650;2023-11-21T03:23:16;126614.50;;;3.87
47484;BMP280;54076;50.322;18.650;2023-11-21T03:28:17;126070.16;;;3.74
47484;BMP280;54076;50.322;18.650;2023-11-21T03:33:19;125436.02;;;3.60
47484;BMP280;54076;50.322;18.650;2023-11-21T03:38:20;126192.31;;;3.76
47484;BMP280;54076;50.322;18.650;2023-11-21T03:43:21;126833.45;;;3.92
47484;BMP280;54076;50.322;18.650;2023-11-21T03:48:22;126587.40;;;3.86
47484;BMP280;54076;50.322;18.650;2023-11-21T03:53:23;127180.59;;;4.00
47484;BMP280;54076;50.322;18.650;2023-11-21T03:58:24;126623.77;;;3.87
47484;BMP280;54076;50.322;18.650;2023-11-21T04:03:25;126825.20;;;3.92
47484;BMP280;54076;50.322;18.650;2023-11-21T04:08:26;125977.98;;;3.72
47484;BMP280;54076;50.322;18.650;2023-11-21T04:13:27;126433.41;;;3.82
47484;BMP280;54076;50.322;18.650;2023-11-21T04:18:28;126297.27;;;3.79
47484;BMP280;54076;50.322;18.650;2023-11-21T04:23:30;127443.66;;;4.06
47484;BMP280;54076;50.322;18.650;2023-11-21T04:28:32;127293.60;;;4.02
47484;BMP280;54076;50.322;18.650;2023-11-21T04:33:33;127049.42;;;3.97
47484;BMP280;54076;50.322;18.650;2023-11-21T04:38:34;127491.91;;;4.07
47484;BMP280;54076;50.322;18.650;2023-11-21T04:43:35;126762.40;;;3.90
47484;BMP280;54076;50.322;18.650;2023-11-21T04:48:36;126722.84;;;3.89
47484;BMP280;54076;50.322;18.650;2023-11-21T04:53:37;126829.38;;;3.92
47484;BMP280;54076;50.322;18.650;2023-11-21T04:58:38;126613.77;;;3.87
47484;BMP280;54076;50.322;18.650;2023-11-21T05:03:41;126565.27;;;3.85
47484;BMP280;54076;50.322;18.650;2023-11-21T05:08:42;126429.13;;;3.82
47484;BMP280;54076;50.322;18.650;2023-11-21T05:13:43;125961.86;;;3.72
47484;BMP280;54076;50.322;18.650;2023-11-21T05:18:44;125810.63;;;3.67
47484;BMP280;54076;50.322;18.650;2023-11-21T05:23:45;127153.96;;;3.99
47484;BMP280;54076;50.322;18.650;2023-11-21T05:28:46;127062.59;;;3.98
47484;BMP280;54076;50.322;18.650;2023-11-21T05:33:47;126736.73;;;3.89
47484;BMP280;54076;50.322;18.650;2023-11-21T05:38:48;127921.02;;;4.16
47484;BMP280;54076;50.322;18.650;2023-11-21T05:43:49;127416.52;;;4.05
47484;BMP280;54076;50.322;18.650;2023-11-21T05:48:50;127030.05;;;3.96
47484;BMP280;54076;50.322;18.650;2023-11-21T05:53:51;127561.69;;;4.08
47484;BMP280;54076;50.322;18.650;2023-11-21T05:58:52;127060.96;;;3.96
47484;BMP280;54076;50.322;18.650;2023-11-21T06:03:54;127336.54;;;4.02
47484;BMP280;54076;50.322;18.650;2023-11-21T06:08:58;127704.73;;;4.11
47484;BMP280;54076;50.322;18.650;2023-11-21T06:13:59;127218.02;;;4.00
47484;BMP280;54076;50.322;18.650;2023-11-21T06:19:00;126954.91;;;3.94
47484;BMP280;54076;50.322;18.650;2023-11-21T06:24:02;127033.31;;;3.95
47484;BMP280;54076;50.322;18.650;2023-11-21T06:29:03;126865.06;;;3.91
47484;BMP280;54076;50.322;18.650;2023-11-21T06:34:04;127116.42;;;3.97
47484;BMP280;54076;50.322;18.650;2023-11-21T06:39:05;126774.02;;;3.89
47484;BMP280;54076;50.322;18.650;2023-11-21T06:44:07;126976.50;;;3.94
47484;BMP280;54076;50.322;18.650;2023-11-21T06:49:09;126790.94;;;3.90
47484;BMP280;54076;50.322;18.650;2023-11-21T06:54:10;126620.84;;;3.86
47484;BMP280;54076;50.322;18.650;2023-11-21T06:59:11;127116.23;;;3.97
47484;BMP280;54076;50.322;18.650;2023-11-21T07:04:12;126211.05;;;3.76
47484;BMP280;54076;50.322;18.650;2023-11-21T07:09:13;126438.70;;;3.81
47484;BMP280;54076;50.322;18.650;2023-11-21T07:14:15;126173.89;;;3.74
47484;BMP280;54076;50.322;18.650;2023-11-21T07:19:17;126866.98;;;3.88
47484;BMP280;54076;50.322;18.650;2023-11-21T07:24:18;127202.96;;;3.95
47484;BMP280;54076;50.322;18.650;2023-11-21T07:29:19;127019.00;;;3.91
47484;BMP280;54076;50.322;18.650;2023-11-21T07:34:21;126909.80;;;3.88
47484;BMP280;54076;50.322;18.650;2023-11-21T07:39:22;126608.19;;;3.82
47484;BMP280;54076;50.322;18.650;2023-11-21T07:44:23;126729.48;;;3.84
47484;BMP280;54076;50.322;18.650;2023-11-21T07:49:24;126530.65;;;3.79
47484;BMP280;54076;50.322;18.650;2023-11-21T07:54:27;126853.33;;;3.85
47484;BMP280;54076;50.322;18.650;2023-11-21T07:59:28;126922.23;;;3.86
47484;BMP280;54076;50.322;18.650;2023-11-21T08:04:29;127530.81;;;4.02
47484;BMP280;54076;50.322;18.650;2023-11-21T08:09:30;128408.25;;;4.21
47484;BMP280;54076;50.322;18.650;2023-11-21T08:14:31;127531.10;;;4.01
47484;BMP280;54076;50.322;18.650;2023-11-21T08:19:32;126969.35;;;3.91
47484;BMP280;54076;50.322;18.650;2023-11-21T08:24:34;127204.71;;;3.96
47484;BMP280;54076;50.322;18.650;2023-11-21T08:29:35;127539.05;;;4.01
47484;BMP280;54076;50.322;18.650;2023-11-21T08:34:39;128136.50;;;4.13
47484;BMP280;54076;50.322;18.650;2023-11-21T08:39:44;127794.61;;;4.06
47484;BMP280;54076;50.322;18.650;2023-11-21T08:44:45;128115.54;;;4.11
47484;BMP280;54076;50.322;18.650;2023-11-21T08:49:46;128548.52;;;4.20
47484;BMP280;54076;50.322;18.650;2023-11-21T08:54:49;129457.00;;;4.40
47484;BMP280;54076;50.322;18.650;2023-11-21T08:59:56;128984.27;;;4.30
47484;BMP280;54076;50.322;18.650;2023-11-21T09:04:57;130676.33;;;4.72
47484;BMP280;54076;50.322;18.650;2023-11-21T09:09:59;130301.19;;;4.60
47484;BMP280;54076;50.322;18.650;2023-11-21T09:15:10;131481.66;;;4.91
47484;BMP280;54076;50.322;18.650;2023-11-21T09:20:12;132147.28;;;5.08
47484;BMP280;54076;50.322;18.650;2023-11-21T09:25:15;132648.03;;;5.23
47484;BMP280;54076;50.322;18.650;2023-11-21T09:30:16;132988.45;;;5.32
47484;BMP280;54076;50.322;18.650;2023-11-21T09:35:18;131836.72;;;5.03
47484;BMP280;54076;50.322;18.650;2023-11-21T09:40:22;130877.88;;;4.78
47484;BMP280;54076;50.322;18.650;2023-11-21T09:45:36;130173.95;;;4.62
47484;BMP280;54076;50.322;18.650;2023-11-21T09:50:42;130108.95;;;4.61
47484;BMP280;54076;50.322;18.650;2023-11-21T09:55:45;129736.33;;;4.54
47484;BMP280;54076;50.322;18.650;2023-11-21T10:00:48;128694.69;;;4.30
47484;BMP280;54076;50.322;18.650;2023-11-21T10:05:50;128084.40;;;4.10
47484;BMP280;54076;50.322;18.650;2023-11-21T10:10:53;129610.23;;;4.43
47484;BMP280;54076;50.322;18.650;2023-11-21T10:15:55;130276.15;;;4.62
47484;BMP280;54076;50.322;18.650;2023-11-21T10:20:56;130583.60;;;4.70
47484;BMP280;54076;50.322;18.650;2023-11-21T10:25:57;129915.35;;;4.51
47484;BMP280;54076;50.322;18.650;2023-11-21T10:31:00;130056.25;;;4.56
47484;BMP280;54076;50.322;18.650;2023-11-21T10:36:01;133034.16;;;5.35
47484;BMP280;54076;50.322;18.650;2023-11-21T10:41:03;132781.09;;;5.29
47484;BMP280;54076;50.322;18.650;2023-11-21T10:46:08;131171.64;;;4.84
47484;BMP280;54076;50.322;18.650;2023-11-21T10:51:09;131086.20;;;4.82
47484;BMP280;54076;50.322;18.650;2023-11-21T10:56:14;131366.63;;;4.90
47484;BMP280;54076;50.322;18.650;2023-11-21T11:01:21;131081.08;;;4.82
47484;BMP280;54076;50.322;18.650;2023-11-21T11:06:26;131799.22;;;5.01
47484;BMP280;54076;50.322;18.650;2023-11-21T11:11:30;131611.53;;;4.96
47484;BMP280;54076;50.322;18.650;2023-11-21T11:16:31;131455.20;;;4.92
47484;BMP280;54076;50.322;18.650;2023-11-21T11:21:51;131486.78;;;4.94
47484;BMP280;54076;50.322;18.650;2023-11-21T11:27:21;131114.59;;;4.85
47484;BMP280;54076;50.322;18.650;2023-11-21T11:32:53;130541.27;;;4.72
47484;BMP280;54076;50.322;18.650;2023-11-21T11:37:57;130110.30;;;4.61
47484;BMP280;54076;50.322;18.650;2023-11-21T11:43:01;130807.46;;;4.78
47484;BMP280;54076;50.322;18.650;2023-11-21T11:48:05;130063.27;;;4.58
47484;BMP280;54076;50.322;18.650;2023-11-21T11:53:14;130042.09;;;4.60
47484;BMP280;54076;50.322;18.650;2023-11-21T11:58:16;130010.05;;;4.60
47484;BMP280;54076;50.322;18.650;2023-11-21T12:03:18;129878.00;;;4.57
47484;BMP280;54076;50.322;18.650;2023-11-21T12:08:20;130054.56;;;4.62
47484;BMP280;54076;50.322;18.650;2023-11-21T12:13:21;129657.60;;;4.50
47484;BMP280;54076;50.322;18.650;2023-11-21T12:18:24;129388.84;;;4.44
47484;BMP280;54076;50.322;18.650;2023-11-21T12:23:27;128521.98;;;4.26
47484;BMP280;54076;50.322;18.650;2023-11-21T12:28:28;129052.02;;;4.35
47484;BMP280;54076;50.322;18.650;2023-11-21T12:33:29;128461.19;;;4.21
47484;BMP280;54076;50.322;18.650;2023-11-21T12:38:36;128705.00;;;4.27
47484;BMP280;54076;50.322;18.650;2023-11-21T12:43:37;129410.84;;;4.40
47484;BMP280;54076;50.322;18.650;2023-11-21T12:48:44;129922.48;;;4.53
47484;BMP280;54076;50.322;18.650;2023-11-21T12:53:48;129472.70;;;4.42
47484;BMP280;54076;50.322;18.650;2023-11-21T12:58:53;129364.05;;;4.42
47484;BMP280;54076;50.322;18.650;2023-11-21T13:03:57;129317.77;;;4.42
47484;BMP280;54076;50.322;18.650;2023-11-21T13:08:59;128720.35;;;4.28
47484;BMP280;54076;50.322;18.650;2023-11-21T13:14:00;128523.14;;;4.24
47484;BMP280;54076;50.322;18.650;2023-11-21T13:19:01;128819.80;;;4.32
47484;BMP280;54076;50.322;18.650;2023-11-21T13:24:04;128348.08;;;4.22
47484;BMP280;54076;50.322;18.650;2023-11-21T13:29:05;128604.00;;;4.29
47484;BMP280;54076;50.322;18.650;2023-11-21T13:34:06;128081.60;;;4.17
47484;BMP280;54076;50.322;18.650;2023-11-21T13:39:09;127908.60;;;4.14
47484;BMP280;54076;50.322;18.650;2023-11-21T13:44:16;127906.65;;;4.13
47484;BMP280;54076;50.322;18.650;2023-11-21T13:49:27;127929.85;;;4.15
47484;BMP280;54076;50.322;18.650;2023-11-21T13:54:27;127811.75;;;4.12
47484;BMP280;54076;50.322;18.650;2023-11-21T13:59:30;127147.63;;;3.98
47484;BMP280;54076;50.322;18.650;2023-11-21T14:04:32;127985.71;;;4.17
47484;BMP280;54076;50.322;18.650;2023-11-21T14:09:33;127449.67;;;4.04
47484;BMP280;54076;50.322;18.650;2023-11-21T14:14:37;127115.91;;;3.97
47484;BMP280;54076;50.322;18.650;2023-11-21T14:19:40;126884.02;;;3.92
47484;BMP280;54076;50.322;18.650;2023-11-21T14:24:43;126774.23;;;3.90
47484;BMP280;54076;50.322;18.650;2023-11-21T14:29:47;126082.69;;;3.74
47484;BMP280;54076;50.322;18.650;2023-11-21T14:34:49;126510.88;;;3.83
47484;BMP280;54076;50.322;18.650;2023-11-21T14:39:50;126449.81;;;3.82
47484;BMP280;54076;50.322;18.650;2023-11-21T14:44:52;126282.98;;;3.78
47484;BMP280;54076;50.322;18.650;2023-11-21T14:49:53;126073.41;;;3.73
47484;BMP280;54076;50.322;18.650;2023-11-21T14:54:54;126235.92;;;3.78
47484;BMP280;54076;50.322;18.650;2023-11-21T15:00:19;126601.65;;;3.87
47484;BMP280;54076;50.322;18.650;2023-11-21T15:05:44;126110.09;;;3.75
47484;BMP280;54076;50.322;18.650;2023-11-21T15:10:45;126657.61;;;3.87
47484;BMP280;54076;50.322;18.650;2023-11-21T15:15:48;127096.77;;;3.98
47484;BMP280;54076;50.322;18.650;2023-11-21T15:20:49;126898.92;;;3.93
47484;BMP280;54076;50.322;18.650;2023-11-21T15:25:50;126180.29;;;3.77
47484;BMP280;54076;50.322;18.650;2023-11-21T15:30:51;126518.40;;;3.85
47484;BMP280;54076;50.322;18.650;2023-11-21T15:35:52;125690.33;;;3.66
47484;BMP280;54076;50.322;18.650;2023-11-21T15:40:54;124837.50;;;3.47
47484;BMP280;54076;50.322;18.650;2023-11-21T15:45:56;125037.65;;;3.51
47484;BMP280;54076;50.322;18.650;2023-11-21T15:50:57;124271.95;;;3.36
47484;BMP280;54076;50.322;18.650;2023-11-21T15:55:58;123881.19;;;3.26
47484;BMP280;54076;50.322;18.650;2023-11-21T16:00:59;124249.30;;;3.34
47484;BMP280;54076;50.322;18.650;2023-11-21T16:06:00;124781.31;;;3.46
47484;BMP280;54076;50.322;18.650;2023-11-21T16:11:01;124187.48;;;3.33
47484;BMP280;54076;50.322;18.650;2023-11-21T16:16:02;123797.75;;;3.24
47484;BMP280;54076;50.322;18.650;2023-11-21T16:21:04;123431.27;;;3.16
47484;BMP280;54076;50.322;18.650;2023-11-21T16:26:05;122583.38;;;2.98
47484;BMP280;54076;50.322;18.650;2023-11-21T16:31:07;122731.58;;;3.01
47484;BMP280;54076;50.322;18.650;2023-11-21T16:36:08;121742.08;;;2.81
47484;BMP280;54076;50.322;18.650;2023-11-21T16:41:09;122316.71;;;2.93
47484;BMP280;54076;50.322;18.650;2023-11-21T16:46:11;121559.40;;;2.77
47484;BMP280;54076;50.322;18.650;2023-11-21T16:51:17;121136.79;;;2.68
47484;BMP280;54076;50.322;18.650;2023-11-21T16:56:19;119588.00;;;2.34
47484;BMP280;54076;50.322;18.650;2023-11-21T17:01:20;120110.27;;;2.45
47484;BMP280;54076;50.322;18.650;2023-11-21T17:06:21;119990.23;;;2.43
47484;BMP280;54076;50.322;18.650;2023-11-21T17:11:24;121221.56;;;2.70
47484;BMP280;54076;50.322;18.650;2023-11-21T17:16:25;120051.65;;;2.44
47484;BMP280;54076;50.322;18.650;2023-11-21T17:21:26;119950.98;;;2.42
47484;BMP280;54076;50.322;18.650;2023-11-21T17:26:27;119209.90;;;2.27
47484;BMP280;54076;50.322;18.650;2023-11-21T17:31:28;118528.88;;;2.12
47484;BMP280;54076;50.322;18.650;2023-11-21T17:36:29;119336.41;;;2.29
47484;BMP280;54076;50.322;18.650;2023-11-21T17:41:31;117933.50;;;1.99
47484;BMP280;54076;50.322;18.650;2023-11-21T17:46:33;117323.14;;;1.88
47484;BMP280;54076;50.322;18.650;2023-11-21T17:51:38;115941.85;;;1.62
47484;BMP280;54076;50.322;18.650;2023-11-21T17:56:40;115477.60;;;1.53
47484;BMP280;54076;50.322;18.650;2023-11-21T18:01:40;114979.46;;;1.44
47484;BMP280;54076;50.322;18.650;2023-11-21T18:06:43;114012.83;;;1.26
47484;BMP280;54076;50.322;18.650;2023-11-21T18:11:45;112720.27;;;1.03
47484;BMP280;54076;50.322;18.650;2023-11-21T18:16:46;113019.70;;;1.08
47484;BMP280;54076;50.322;18.650;2023-11-21T18:21:47;113447.56;;;1.15
47484;BMP280;54076;50.322;18.650;2023-11-21T18:26:48;111537.04;;;0.82
47484;BMP280;54076;50.322;18.650;2023-11-21T18:31:50;111180.70;;;0.76
47484;BMP280;54076;50.322;18.650;2023-11-21T18:36:51;110640.98;;;0.65
47484;BMP280;54076;50.322;18.650;2023-11-21T18:41:53;109848.40;;;0.51
47484;BMP280;54076;50.322;18.650;2023-11-21T18:46:55;109531.40;;;0.45
47484;BMP280;54076;50.322;18.650;2023-11-21T18:51:56;110375.55;;;0.62
47484;BMP280;54076;50.322;18.650;2023-11-21T18:56:58;109229.58;;;0.40
47484;BMP280;54076;50.322;18.650;2023-11-21T19:02:02;107341.88;;;0.07
47484;BMP280;54076;50.322;18.650;2023-11-21T19:07:05;106649.61;;;-0.05
47484;BMP280;54076;50.322;18.650;2023-11-21T19:12:07;106886.95;;;-0.01
47484;BMP280;54076;50.322;18.650;2023-11-21T19:17:09;105029.92;;;-0.31
47484;BMP280;54076;50.322;18.650;2023-11-21T19:22:10;106195.67;;;-0.12
47484;BMP280;54076;50.322;18.650;2023-11-21T19:27:11;106268.35;;;-0.11
47484;BMP280;54076;50.322;18.650;2023-11-21T19:32:12;104932.61;;;-0.33
47484;BMP280;54076;50.322;18.650;2023-11-21T19:37:13;103888.23;;;-0.49
47484;BMP280;54076;50.322;18.650;2023-11-21T19:42:14;103820.45;;;-0.50
47484;BMP280;54076;50.322;18.650;2023-11-21T19:47:16;102759.65;;;-0.67
47484;BMP280;54076;50.322;18.650;2023-11-21T19:52:16;101061.30;;;-0.93
47484;BMP280;54076;50.322;18.650;2023-11-21T19:57:17;100809.63;;;-0.97
47484;BMP280;54076;50.322;18.650;2023-11-21T20:02:18;100743.08;;;-0.98
47484;BMP280;54076;50.322;18.650;2023-11-21T20:07:19;101958.23;;;-0.79
47484;BMP280;54076;50.322;18.650;2023-11-21T20:12:22;102510.58;;;-0.71
47484;BMP280;54076;50.322;18.650;2023-11-21T20:17:23;102054.20;;;-0.78
47484;BMP280;54076;50.322;18.650;2023-11-21T20:22:24;102641.09;;;-0.69
47484;BMP280;54076;50.322;18.650;2023-11-21T20:27:25;101492.38;;;-0.87
47484;BMP280;54076;50.322;18.650;2023-11-21T20:32:27;100020.69;;;-1.09
47484;BMP280;54076;50.322;18.650;2023-11-21T20:37:28;98711.88;;;-1.30
47484;BMP280;54076;50.322;18.650;2023-11-21T20:42:29;97528.21;;;-1.48
47484;BMP280;54076;50.322;18.650;2023-11-21T20:47:31;97967.36;;;-1.41
47484;BMP280;54076;50.322;18.650;2023-11-21T20:52:33;97993.98;;;-1.40
47484;BMP280;54076;50.322;18.650;2023-11-21T20:57:34;97576.60;;;-1.47
47484;BMP280;54076;50.322;18.650;2023-11-21T21:02:35;96377.28;;;-1.64
47484;BMP280;54076;50.322;18.650;2023-11-21T21:07:36;97214.92;;;-1.53
47484;BMP280;54076;50.322;18.650;2023-11-21T21:12:39;96215.16;;;-1.68
47484;BMP280;54076;50.322;18.650;2023-11-21T21:17:41;95603.98;;;-1.77
47484;BMP280;54076;50.322;18.650;2023-11-21T21:22:42;94884.06;;;-1.87
47484;BMP280;54076;50.322;18.650;2023-11-21T21:27:44;93362.71;;;-2.08
47484;BMP280;54076;50.322;18.650;2023-11-21T21:32:45;93613.13;;;-2.05
47484;BMP280;54076;50.322;18.650;2023-11-21T21:37:47;93228.53;;;-2.11
47484;BMP280;54076;50.322;18.650;2023-11-21T21:42:49;93208.83;;;-2.10
47484;BMP280;54076;50.322;18.650;2023-11-21T21:47:51;93066.52;;;-2.12
47484;BMP280;54076;50.322;18.650;2023-11-21T21:52:52;94260.83;;;-1.96
47484;BMP280;54076;50.322;18.650;2023-11-21T21:57:53;93859.95;;;-2.01
47484;BMP280;54076;50.322;18.650;2023-11-21T22:02:54;93881.17;;;-2.01
47484;BMP280;54076;50.322;18.650;2023-11-21T22:07:56;93459.72;;;-2.06
47484;BMP280;54076;50.322;18.650;2023-11-21T22:12:57;92904.26;;;-2.14
47484;BMP280;54076;50.322;18.650;2023-11-21T22:17:58;93734.70;;;-2.03
47484;BMP280;54076;50.322;18.650;2023-11-21T22:22:59;94387.09;;;-1.94
47484;BMP280;54076;50.322;18.650;2023-11-21T22:28:00;94799.37;;;-1.89
47484;BMP280;54076;50.322;18.650;2023-11-21T22:33:01;94624.21;;;-1.91
47484;BMP280;54076;50.322;18.650;2023-11-21T22:38:02;93755.17;;;-2.03
47484;BMP280;54076;50.322;18.650;2023-11-21T22:43:03;92991.20;;;-2.13
47484;BMP280;54076;50.322;18.650;2023-11-21T22:48:05;91584.92;;;-2.32
47484;BMP280;54076;50.322;18.650;2023-11-21T22:53:06;91334.98;;;-2.36
47484;BMP280;54076;50.322;18.650;2023-11-21T22:58:08;92248.19;;;-2.23
47484;BMP280;54076;50.322;18.650;2023-11-21T23:03:09;92991.79;;;-2.13
47484;BMP280;54076;50.322;18.650;2023-11-21T23:08:10;92239.12;;;-2.24
47484;BMP280;54076;50.322;18.650;2023-11-21T23:13:12;92669.08;;;-2.18
47484;BMP280;54076;50.322;18.650;2023-11-21T23:18:14;93053.98;;;-2.12
47484;BMP280;54076;50.322;18.650;2023-11-21T23:23:15;89747.94;;;-2.57
47484;BMP280;54076;50.322;18.650;2023-11-21T23:28:17;90658.52;;;-2.45
47484;BMP280;54076;50.322;18.650;2023-11-21T23:33:21;91405.63;;;-2.35
47484;BMP280;54076;50.322;18.650;2023-11-21T23:38:22;92569.54;;;-2.19
47484;BMP280;54076;50.322;18.650;2023-11-21T23:43:23;93033.36;;;-2.12
47484;BMP280;54076;50.322;18.650;2023-11-21T23:48:24;91468.52;;;-2.34
47484;BMP280;54076;50.322;18.650;2023-11-21T23:53:25;91447.68;;;-2.34
47484;BMP280;54076;50.322;18.650;2023-11-21T23:58:26;91877.55;;;-2.28
